Time;durP1;ratioP1;P1;durP2;ratioP2;P2;SDS_P1;SDS_P2;PMS_P1;PMS_P2;Temp;Humidity;BMP_temperature;BMP_pressure;BME280_temperature;BME280_humidity;BME280_pressure;Samples;Min_cycle;Max_cycle;Signal;HPM_P1;HPM_P2
2024/03/23 00:00:15;;;;;;;;;;;;;;;13.81;77.85;100558.16;5051359;27;98113;-74
2024/03/23 00:02:42;;;;;;;;;;;;;;;13.64;78.21;100558.19;5051771;27;96844;-74
2024/03/23 00:05:10;;;;;;;;;;;;;;;13.98;77.13;100559.09;5051946;27;113754;-75
2024/03/23 00:07:37;;;;;;;;;;;;;;;13.67;78.50;100550.03;5049966;27;98549;-75
2024/03/23 00:10:05;;;;;;;;;;;;;;;13.49;79.09;100559.81;5051540;27;97126;-75
2024/03/23 00:12:32;;;;;;;;;;;;;;;13.78;77.52;100552.16;5053422;27;96832;-75
2024/03/23 00:15:00;;;;;;;;;;;;;;;13.64;77.60;100555.53;5041659;27;98955;-76
2024/03/23 00:17:27;;;;;;;;;;;;;;;13.51;78.36;100544.66;5052233;27;98401;-74
2024/03/23 00:19:55;;;;;;;;;;;;;;;13.34;79.47;100544.63;5052293;27;96845;-74
2024/03/23 00:22:22;;;;;;;;;;;;;;;13.49;79.29;100543.03;5053161;27;97300;-75
2024/03/23 00:24:50;;;;;;;;;;;;;;;13.49;78.30;100533.25;5051261;27;112022;-74
2024/03/23 00:27:17;;;;;;;;;;;;;;;13.24;79.40;100526.63;5053993;27;99337;-75
2024/03/23 00:29:45;;;;;;;;;;;;;;;13.15;79.03;100528.78;5055865;27;97078;-75
2024/03/23 00:32:12;;;;;;;;;;;;;;;12.99;79.16;100530.44;5052266;27;97063;-75
2024/03/23 00:34:40;;;;;;;;;;;;;;;12.98;78.64;100523.44;5052843;27;97771;-76
2024/03/23 00:37:07;;;;;;;;;;;;;;;13.12;78.33;100510.38;5050170;27;98731;-75
2024/03/23 00:39:35;;;;;;;;;;;;;;;13.47;76.70;100497.97;5053788;27;96861;-76
2024/03/23 00:42:02;;;;;;;;;;;;;;;13.45;76.78;100499.88;5048588;27;97766;-75
2024/03/23 00:44:30;;;;;;;;;;;;;;;13.16;78.42;100496.00;5051555;27;101818;-74
2024/03/23 00:46:57;;;;;;;;;;;;;;;13.35;77.78;100497.72;5042904;27;98998;-74
2024/03/23 00:49:25;;;;;;;;;;;;;;;13.33;77.70;100496.94;5051505;27;97029;-74
2024/03/23 00:51:52;;;;;;;;;;;;;;;13.05;78.58;100494.81;5051998;27;97677;-73
2024/03/23 00:54:20;;;;;;;;;;;;;;;12.91;79.37;100484.00;5051457;27;119335;-75
2024/03/23 00:56:46;;;;;;;;;;;;;;;13.11;79.27;100481.25;5049398;27;98885;-74
2024/03/23 00:59:12;;;;;;;;;;;;;;;13.09;78.65;100483.09;5049298;27;96781;-75
2024/03/23 01:01:37;;;;;;;;;;;;;;;13.20;78.29;100474.63;5051121;27;96809;-75
2024/03/23 01:04:03;;;;;;;;;;;;;;;13.06;78.38;100478.78;5051274;27;99250;-74
2024/03/23 01:06:29;;;;;;;;;;;;;;;13.04;78.47;100478.03;5050916;27;97535;-75
2024/03/23 01:08:55;;;;;;;;;;;;;;;12.99;78.47;100481.84;5047009;27;97306;-75
2024/03/23 01:11:22;;;;;;;;;;;;;;;13.26;78.05;100469.84;5051460;27;97237;-75
2024/03/23 01:13:48;;;;;;;;;;;;;;;13.27;78.27;100473.38;5050610;27;98903;-75
2024/03/23 01:16:14;;;;;;;;;;;;;;;13.33;78.45;100470.41;5049609;27;98775;-74
2024/03/23 01:18:39;;;;;;;;;;;;;;;13.33;78.27;100475.72;5052156;27;97083;-75
2024/03/23 01:21:05;;;;;;;;;;;;;;;13.19;79.75;100473.78;5049372;27;96907;-75
2024/03/23 01:23:31;;;;;;;;;;;;;;;12.69;82.63;100470.94;5052469;27;97737;-74
2024/03/23 01:25:57;;;;;;;;;;;;;;;12.76;81.85;100464.41;5051060;27;98810;-75
2024/03/23 01:28:24;;;;;;;;;;;;;;;13.05;81.14;100466.50;5059895;27;96923;-74
2024/03/23 01:30:50;;;;;;;;;;;;;;;13.02;80.45;100456.03;5051539;27;96836;-75
2024/03/23 01:33:15;;;;;;;;;;;;;;;13.04;80.70;100455.94;5051633;27;101671;-75
2024/03/23 01:35:42;;;;;;;;;;;;;;;12.95;81.15;100443.13;5047125;27;99002;-74
2024/03/23 01:38:07;;;;;;;;;;;;;;;12.84;81.07;100432.22;5049124;27;96813;-74
2024/03/23 01:40:33;;;;;;;;;;;;;;;12.86;81.59;100423.25;5051664;27;96704;-74
2024/03/23 01:43:03;;;;;;;;;;;;;;;13.25;79.85;100412.44;5050901;27;99372;-74
2024/03/23 01:45:31;;;;;;;;;;;;;;;13.59;77.87;100414.16;5051442;27;98735;-74
2024/03/23 01:47:56;;;;;;;;;;;;;;;13.42;77.99;100407.13;5051584;27;96879;-74
2024/03/23 01:50:23;;;;;;;;;;;;;;;13.52;78.35;100410.97;5050437;27;97283;-74
2024/03/23 01:52:49;;;;;;;;;;;;;;;13.42;79.12;100400.94;5047803;27;98014;-74
2024/03/23 01:55:15;;;;;;;;;;;;;;;13.40;80.12;100398.38;5051093;27;99012;-74
2024/03/23 01:57:41;;;;;;;;;;;;;;;13.19;80.25;100403.94;5051653;27;97075;-74
2024/03/23 02:00:08;;;;;;;;;;;;;;;13.06;80.37;100407.16;5049814;27;98826;-74
2024/03/23 02:02:34;;;;;;;;;;;;;;;13.05;80.85;100397.53;5049574;27;98856;-74
2024/03/23 02:05:01;;;;;;;;;;;;;;;13.18;80.73;100396.94;5051265;27;99117;-74
2024/03/23 02:07:27;;;;;;;;;;;;;;;13.18;79.98;100392.47;5049095;27;97035;-73
2024/03/23 02:09:53;;;;;;;;;;;;;;;13.35;78.54;100399.53;5049638;27;98781;-74
2024/03/23 02:12:19;;;;;;;;;;;;;;;13.34;78.39;100392.53;5046434;27;99034;-74
2024/03/23 02:14:45;;;;;;;;;;;;;;;13.24;79.79;100400.13;5051163;27;98742;-74
2024/03/23 02:17:10;;;;;;;;;;;;;;;12.81;81.10;100400.53;5050779;27;96818;-74
2024/03/23 02:19:38;;;;;;;;;;;;;;;12.65;82.20;100403.09;5051247;27;97787;-75
2024/03/23 02:22:04;;;;;;;;;;;;;;;12.66;82.14;100388.94;5050060;27;99027;-74
2024/03/23 02:24:33;;;;;;;;;;;;;;;12.81;82.17;100395.22;5051673;27;97470;-74
2024/03/23 02:26:59;;;;;;;;;;;;;;;12.64;83.28;100388.13;5047937;27;97186;-75
2024/03/23 02:29:25;;;;;;;;;;;;;;;12.68;82.31;100379.94;5054544;27;97514;-71
2024/03/23 02:31:50;;;;;;;;;;;;;;;12.92;82.46;100375.22;5047788;27;98960;-74
2024/03/23 02:34:17;;;;;;;;;;;;;;;12.89;81.05;100369.19;5050402;27;98712;-75
2024/03/23 02:36:42;;;;;;;;;;;;;;;12.93;81.46;100366.28;5051328;27;96913;-75
2024/03/23 02:39:08;;;;;;;;;;;;;;;12.93;81.07;100363.66;5054559;27;96895;-71
2024/03/23 02:41:35;;;;;;;;;;;;;;;12.90;80.04;100355.00;5053449;27;98965;-71
2024/03/23 02:44:01;;;;;;;;;;;;;;;12.90;80.47;100353.22;5053931;27;99258;-71
2024/03/23 02:46:27;;;;;;;;;;;;;;;12.99;80.52;100352.75;5052880;27;96854;-71
2024/03/23 02:48:53;;;;;;;;;;;;;;;13.01;81.22;100352.66;5053548;27;97772;-71
2024/03/23 02:51:19;;;;;;;;;;;;;;;12.77;82.65;100349.47;5051877;27;101459;-71
2024/03/23 02:53:44;;;;;;;;;;;;;;;12.79;83.64;100339.66;5053326;27;98842;-71
2024/03/23 02:56:15;;;;;;;;;;;;;;;12.98;82.58;100342.22;5051907;27;97061;-71
2024/03/23 02:58:42;;;;;;;;;;;;;;;12.71;83.29;100341.84;5050440;27;97155;-71
2024/03/23 03:01:08;;;;;;;;;;;;;;;12.29;85.88;100353.63;5045954;27;99089;-72
2024/03/23 03:03:33;;;;;;;;;;;;;;;12.51;85.29;100347.28;5053596;27;98833;-70
2024/03/23 03:05:59;;;;;;;;;;;;;;;12.46;85.73;100341.34;5053505;27;96860;-72
2024/03/23 03:08:25;;;;;;;;;;;;;;;12.40;84.62;100344.31;5054449;27;96838;-71
2024/03/23 03:10:51;;;;;;;;;;;;;;;12.58;84.99;100351.34;5052730;27;99175;-71
2024/03/23 03:13:16;;;;;;;;;;;;;;;12.49;84.29;100339.38;5052236;27;99015;-70
2024/03/23 03:15:44;;;;;;;;;;;;;;;12.38;84.52;100331.97;5053205;27;96824;-70
2024/03/23 03:18:09;;;;;;;;;;;;;;;12.29;85.14;100332.41;5052957;27;96854;-71
2024/03/23 03:20:37;;;;;;;;;;;;;;;12.35;84.81;100332.13;5052766;27;99553;-71
2024/03/23 03:23:03;;;;;;;;;;;;;;;11.90;84.70;100337.84;5052856;27;98735;-71
2024/03/23 03:25:29;;;;;;;;;;;;;;;12.02;84.71;100325.81;5052569;27;97177;-71
2024/03/23 03:27:54;;;;;;;;;;;;;;;12.18;85.21;100324.16;5052247;27;97121;-72
2024/03/23 03:30:20;;;;;;;;;;;;;;;12.27;83.63;100323.69;5050688;27;98838;-71
2024/03/23 03:32:47;;;;;;;;;;;;;;;12.40;82.87;100307.19;5053579;27;97618;-71
2024/03/23 03:35:13;;;;;;;;;;;;;;;12.61;81.66;100306.97;5050773;27;97254;-71
2024/03/23 03:37:39;;;;;;;;;;;;;;;12.37;82.63;100303.75;5054213;27;96871;-71
2024/03/23 03:40:08;;;;;;;;;;;;;;;11.87;84.26;100306.25;5053173;27;101595;-71
2024/03/23 03:42:34;;;;;;;;;;;;;;;11.95;84.54;100300.56;5046093;27;100864;-71
2024/03/23 03:45:00;;;;;;;;;;;;;;;12.29;83.00;100299.78;5053481;27;99868;-71
2024/03/23 03:47:25;;;;;;;;;;;;;;;12.38;82.42;100297.53;5044549;27;96817;-71
2024/03/23 03:49:52;;;;;;;;;;;;;;;12.52;81.61;100298.63;5047778;27;98961;-70
2024/03/23 03:52:18;;;;;;;;;;;;;;;12.25;81.61;100304.38;5044731;27;98973;-71
2024/03/23 03:54:44;;;;;;;;;;;;;;;12.34;81.26;100298.59;5045507;27;97322;-72
2024/03/23 03:57:09;;;;;;;;;;;;;;;12.25;81.37;100293.78;5052692;27;96805;-71
2024/03/23 03:59:35;;;;;;;;;;;;;;;12.33;80.16;100294.25;5050333;27;98847;-71
2024/03/23 04:02:01;;;;;;;;;;;;;;;12.49;78.28;100283.72;5047000;27;99025;-70
2024/03/23 04:04:27;;;;;;;;;;;;;;;12.86;76.60;100280.06;5050771;27;97096;-71
2024/03/23 04:06:59;;;;;;;;;;;;;;;13.00;76.36;100279.31;5049213;27;96825;-71
2024/03/23 04:09:25;;;;;;;;;;;;;;;13.29;74.21;100283.13;5050822;27;101105;-71
2024/03/23 04:11:50;;;;;;;;;;;;;;;13.27;74.43;100274.38;5050880;27;97622;-71
2024/03/23 04:14:16;;;;;;;;;;;;;;;13.49;74.06;100274.94;5053440;27;96782;-71
2024/03/23 04:16:42;;;;;;;;;;;;;;;13.67;73.50;100281.88;5051722;27;96990;-71
2024/03/23 04:19:08;;;;;;;;;;;;;;;13.70;71.75;100292.34;5051619;27;98739;-71
2024/03/23 04:21:34;;;;;;;;;;;;;;;13.38;72.50;100294.09;5050963;27;99108;-70
2024/03/23 04:24:01;;;;;;;;;;;;;;;13.16;71.89;100288.22;5051392;27;97778;-71
2024/03/23 04:26:26;;;;;;;;;;;;;;;12.98;73.77;100289.19;5049462;27;96857;-71
2024/03/23 04:28:53;;;;;;;;;;;;;;;13.23;72.18;100284.31;5052810;27;98891;-71
2024/03/23 04:31:18;;;;;;;;;;;;;;;12.98;71.35;100282.06;5051155;27;98755;-70
2024/03/23 04:33:44;;;;;;;;;;;;;;;12.63;73.09;100275.94;5051661;27;97721;-71
2024/03/23 04:36:10;;;;;;;;;;;;;;;12.58;74.08;100270.03;5052456;27;96947;-71
2024/03/23 04:38:36;;;;;;;;;;;;;;;12.40;74.92;100270.97;5051138;27;102233;-71
2024/03/23 04:41:04;;;;;;;;;;;;;;;12.27;76.09;100269.88;5051725;27;98968;-71
2024/03/23 04:43:30;;;;;;;;;;;;;;;12.06;77.21;100265.63;5051970;27;96848;-72
2024/03/23 04:45:56;;;;;;;;;;;;;;;12.15;77.07;100265.16;5052240;27;97144;-71
2024/03/23 04:48:23;;;;;;;;;;;;;;;12.02;78.57;100256.97;5051165;27;99248;-71
2024/03/23 04:50:50;;;;;;;;;;;;;;;12.12;78.89;100249.44;5047428;27;99191;-71
2024/03/23 04:53:17;;;;;;;;;;;;;;;12.19;77.31;100235.81;5051006;27;96943;-71
2024/03/23 04:55:43;;;;;;;;;;;;;;;12.41;77.01;100242.66;5052568;27;96783;-71
2024/03/23 04:58:09;;;;;;;;;;;;;;;12.47;75.87;100237.91;5050772;27;98649;-71
2024/03/23 05:00:36;;;;;;;;;;;;;;;12.31;76.50;100237.84;5046897;27;98957;-69
2024/03/23 05:03:03;;;;;;;;;;;;;;;12.21;78.19;100230.41;5048191;27;98144;-70
2024/03/23 05:05:28;;;;;;;;;;;;;;;12.20;79.56;100228.72;5052225;27;97000;-70
2024/03/23 05:07:54;;;;;;;;;;;;;;;12.10;79.60;100236.25;5050597;27;98647;-71
2024/03/23 05:10:20;;;;;;;;;;;;;;;12.13;79.62;100240.56;5048601;27;99464;-70
2024/03/23 05:12:46;;;;;;;;;;;;;;;12.10;80.08;100230.09;5050564;27;98924;-71
2024/03/23 05:15:13;;;;;;;;;;;;;;;12.24;79.62;100230.28;5052270;27;97225;-71
2024/03/23 05:17:39;;;;;;;;;;;;;;;12.12;80.16;100226.47;5047761;27;98550;-71
2024/03/23 05:20:09;;;;;;;;;;;;;;;12.11;80.23;100234.47;5049536;27;98783;-71
2024/03/23 05:22:35;;;;;;;;;;;;;;;12.00;81.19;100219.13;5048581;27;98802;-70
2024/03/23 05:25:00;;;;;;;;;;;;;;;12.04;79.54;100223.31;5051968;27;96839;-70
2024/03/23 05:27:27;;;;;;;;;;;;;;;12.05;80.10;100224.19;5051077;27;99012;-70
2024/03/23 05:29:52;;;;;;;;;;;;;;;11.98;80.83;100219.19;5050065;27;98808;-70
2024/03/23 05:32:20;;;;;;;;;;;;;;;11.98;80.63;100220.97;5043763;27;96849;-70
2024/03/23 05:34:45;;;;;;;;;;;;;;;11.63;81.22;100219.16;5051819;27;97833;-71
2024/03/23 05:37:12;;;;;;;;;;;;;;;11.76;81.50;100212.38;5046729;27;98969;-71
2024/03/23 05:39:37;;;;;;;;;;;;;;;11.69;81.13;100202.97;5044333;27;98967;-71
2024/03/23 05:42:03;;;;;;;;;;;;;;;11.85;81.21;100204.84;5048594;27;97901;-71
2024/03/23 05:44:29;;;;;;;;;;;;;;;11.96;80.89;100199.88;5043614;27;96902;-70
2024/03/23 05:46:55;;;;;;;;;;;;;;;12.14;80.64;100190.13;5051052;27;98971;-72
2024/03/23 05:49:21;;;;;;;;;;;;;;;12.11;80.44;100185.00;5049453;27;96783;-72
2024/03/23 05:51:48;;;;;;;;;;;;;;;12.32;79.20;100181.28;5049317;27;96927;-71
2024/03/23 05:54:13;;;;;;;;;;;;;;;12.36;78.15;100174.00;5048000;27;96833;-72
2024/03/23 05:56:39;;;;;;;;;;;;;;;12.41;78.14;100176.41;5049911;27;99011;-71
2024/03/23 05:59:04;;;;;;;;;;;;;;;12.12;78.71;100177.94;5046320;27;99654;-71
2024/03/23 06:01:32;;;;;;;;;;;;;;;12.38;77.35;100178.31;5043742;27;97360;-71
2024/03/23 06:03:57;;;;;;;;;;;;;;;12.49;76.18;100168.94;5052242;27;96855;-71
2024/03/23 06:06:25;;;;;;;;;;;;;;;12.23;75.76;100167.63;5040916;27;100839;-71
2024/03/23 06:08:51;;;;;;;;;;;;;;;12.68;75.24;100153.75;5040965;27;99337;-71
2024/03/23 06:11:17;;;;;;;;;;;;;;;12.56;73.98;100155.28;5049746;27;96733;-71
2024/03/23 06:13:42;;;;;;;;;;;;;;;12.62;74.58;100148.78;5048539;27;97373;-71
2024/03/23 06:16:08;;;;;;;;;;;;;;;12.55;73.91;100150.91;5048559;27;100608;-71
2024/03/23 06:18:34;;;;;;;;;;;;;;;12.67;72.45;100144.09;5049946;27;97918;-71
2024/03/23 06:21:00;;;;;;;;;;;;;;;12.91;72.73;100145.44;5049516;27;97160;-71
2024/03/23 06:23:27;;;;;;;;;;;;;;;12.88;72.12;100140.28;5049462;27;96799;-71
2024/03/23 06:25:53;;;;;;;;;;;;;;;12.80;72.46;100139.03;5050125;27;99273;-71
2024/03/23 06:28:18;;;;;;;;;;;;;;;13.00;72.29;100139.63;5052092;27;99149;-71
2024/03/23 06:30:44;;;;;;;;;;;;;;;12.96;73.16;100142.53;5049395;27;97105;-71
2024/03/23 06:33:09;;;;;;;;;;;;;;;13.20;72.65;100135.91;5047980;27;96927;-71
2024/03/23 06:35:36;;;;;;;;;;;;;;;12.77;73.41;100145.31;5049260;27;99127;-71
2024/03/23 06:38:01;;;;;;;;;;;;;;;12.57;73.05;100140.22;5055772;27;101951;-71
2024/03/23 06:40:29;;;;;;;;;;;;;;;12.64;73.65;100141.63;5047908;27;96850;-71
2024/03/23 06:42:54;;;;;;;;;;;;;;;13.24;73.33;100131.28;5041728;27;101603;-75
2024/03/23 06:45:23;;;;;;;;;;;;;;;13.37;71.27;100124.34;5046446;27;99396;-72
2024/03/23 06:47:48;;;;;;;;;;;;;;;13.50;70.61;100118.25;5049860;27;98696;-72
2024/03/23 06:50:14;;;;;;;;;;;;;;;13.53;70.14;100119.88;5050853;27;97193;-71
2024/03/23 06:52:39;;;;;;;;;;;;;;;13.68;70.25;100115.47;5048336;27;97277;-72
2024/03/23 06:55:06;;;;;;;;;;;;;;;13.55;68.88;100115.31;5050184;27;98924;-72
2024/03/23 06:57:32;;;;;;;;;;;;;;;13.74;68.74;100110.66;5050930;27;99834;-71
2024/03/23 06:59:59;;;;;;;;;;;;;;;13.81;69.47;100111.16;5047549;27;96964;-71
2024/03/23 07:02:24;;;;;;;;;;;;;;;13.84;68.63;100103.88;5051385;27;99170;-70
2024/03/23 07:04:50;;;;;;;;;;;;;;;13.46;69.56;100099.91;5051086;27;99114;-71
2024/03/23 07:07:15;;;;;;;;;;;;;;;13.74;70.32;100100.03;5051129;27;99028;-71
2024/03/23 07:09:41;;;;;;;;;;;;;;;13.95;69.41;100104.09;5049467;27;96865;-71
2024/03/23 07:12:07;;;;;;;;;;;;;;;14.07;68.99;100099.84;5045560;27;97229;-71
2024/03/23 07:14:34;;;;;;;;;;;;;;;13.94;68.14;100097.06;5042806;27;98933;-71
2024/03/23 07:16:59;;;;;;;;;;;;;;;13.79;67.09;100097.97;5050205;27;97679;-70
2024/03/23 07:19:26;;;;;;;;;;;;;;;13.63;68.06;100102.47;5050673;27;98084;-71
2024/03/23 07:21:51;;;;;;;;;;;;;;;13.72;67.51;100101.91;5049830;27;97072;-71
2024/03/23 07:24:17;;;;;;;;;;;;;;;13.64;68.22;100098.88;5051670;27;100060;-71
2024/03/23 07:26:43;;;;;;;;;;;;;;;13.48;68.15;100092.75;5046381;27;98063;-71
2024/03/23 07:29:09;;;;;;;;;;;;;;;13.41;68.81;100091.38;5048944;27;98170;-70
2024/03/23 07:31:36;;;;;;;;;;;;;;;13.31;69.27;100095.50;5050460;27;97796;-71
2024/03/23 07:34:02;;;;;;;;;;;;;;;13.52;69.54;100096.94;5052735;27;99590;-71
2024/03/23 07:36:28;;;;;;;;;;;;;;;13.80;68.11;100088.19;5049207;27;98881;-71
2024/03/23 07:38:54;;;;;;;;;;;;;;;13.95;66.16;100090.81;5053247;27;96826;-70
2024/03/23 07:41:20;;;;;;;;;;;;;;;13.78;65.49;100085.66;5056158;27;97243;-70
2024/03/23 07:43:46;;;;;;;;;;;;;;;13.72;66.02;100083.34;5048883;27;98970;-71
2024/03/23 07:46:11;;;;;;;;;;;;;;;13.68;66.31;100079.16;5050289;27;99329;-71
2024/03/23 07:48:39;;;;;;;;;;;;;;;13.61;67.09;100083.13;5050449;27;97494;-71
2024/03/23 07:51:06;;;;;;;;;;;;;;;13.60;66.78;100078.75;5052402;27;97313;-70
2024/03/23 07:53:33;;;;;;;;;;;;;;;13.76;66.19;100076.06;5053152;27;99315;-71
2024/03/23 07:55:59;;;;;;;;;;;;;;;13.61;67.00;100071.63;5053331;27;101331;-71
2024/03/23 07:58:25;;;;;;;;;;;;;;;13.65;65.92;100063.44;5050914;27;97454;-71
2024/03/23 08:00:51;;;;;;;;;;;;;;;13.44;66.90;100069.97;5049928;27;97425;-71
2024/03/23 08:03:17;;;;;;;;;;;;;;;13.69;66.84;100070.25;5049170;27;101667;-71
2024/03/23 08:05:44;;;;;;;;;;;;;;;13.61;67.63;100071.63;5058024;27;98757;-70
2024/03/23 08:08:10;;;;;;;;;;;;;;;13.54;68.62;100069.34;5050948;27;97462;-70
2024/03/23 08:10:35;;;;;;;;;;;;;;;13.43;69.29;100070.91;5054746;27;96910;-70
2024/03/23 08:13:02;;;;;;;;;;;;;;;13.09;69.66;100071.94;5051427;27;98871;-70
2024/03/23 08:15:29;;;;;;;;;;;;;;;13.01;69.25;100067.06;5051548;27;98731;-72
2024/03/23 08:17:55;;;;;;;;;;;;;;;12.71;69.76;100066.13;5053576;27;96806;-71
2024/03/23 08:20:21;;;;;;;;;;;;;;;12.50;70.60;100059.34;5056868;27;96924;-72
2024/03/23 08:22:48;;;;;;;;;;;;;;;12.56;70.77;100069.63;5052192;27;99142;-70
2024/03/23 08:25:13;;;;;;;;;;;;;;;12.25;71.38;100060.66;5053646;27;99017;-74
2024/03/23 08:27:40;;;;;;;;;;;;;;;12.52;72.23;100058.34;5056266;27;97165;-74
2024/03/23 08:30:07;;;;;;;;;;;;;;;12.52;71.63;100054.81;5057701;27;97318;-74
2024/03/23 08:32:33;;;;;;;;;;;;;;;12.40;71.49;100053.69;5048161;27;100581;-75
2024/03/23 08:34:58;;;;;;;;;;;;;;;12.08;72.04;100051.91;5048047;27;98705;-75
2024/03/23 08:37:25;;;;;;;;;;;;;;;12.15;71.26;100053.28;5050722;27;96841;-75
2024/03/23 08:39:52;;;;;;;;;;;;;;;12.16;71.69;100055.84;5050137;27;97011;-74
2024/03/23 08:42:22;;;;;;;;;;;;;;;12.06;72.26;100053.78;5053951;27;97800;-75
2024/03/23 08:44:49;;;;;;;;;;;;;;;12.22;71.67;100054.66;5053731;27;98734;-75
2024/03/23 08:47:15;;;;;;;;;;;;;;;12.34;71.77;100056.66;5052983;27;98220;-74
2024/03/23 08:49:41;;;;;;;;;;;;;;;12.21;71.17;100058.25;5053374;27;98791;-74
2024/03/23 08:52:08;;;;;;;;;;;;;;;12.08;70.03;100060.69;5054892;27;98535;-75
2024/03/23 08:54:34;;;;;;;;;;;;;;;11.80;70.44;100057.78;5049944;27;98185;-74
2024/03/23 08:57:01;;;;;;;;;;;;;;;11.88;71.31;100060.88;5052698;27;96895;-75
2024/03/23 08:59:27;;;;;;;;;;;;;;;11.97;69.95;100060.41;5051362;27;98963;-74
2024/03/23 09:01:53;;;;;;;;;;;;;;;11.71;70.42;100060.84;5047793;27;97812;-74
2024/03/23 09:04:19;;;;;;;;;;;;;;;11.36;71.65;100058.16;5053923;27;100735;-74
2024/03/23 09:06:45;;;;;;;;;;;;;;;11.45;71.41;100068.31;5049397;27;100956;-75
2024/03/23 09:09:10;;;;;;;;;;;;;;;10.97;71.31;100066.25;5051674;27;96890;-74
2024/03/23 09:11:37;;;;;;;;;;;;;;;11.05;70.78;100068.53;5050470;27;98915;-74
2024/03/23 09:14:04;;;;;;;;;;;;;;;11.06;70.85;100067.63;5052212;27;98834;-74
2024/03/23 09:16:30;;;;;;;;;;;;;;;11.17;70.81;100060.00;5052492;27;97411;-75
2024/03/23 09:18:55;;;;;;;;;;;;;;;11.12;70.11;100075.25;5051299;27;98203;-74
2024/03/23 09:21:21;;;;;;;;;;;;;;;10.97;71.39;100081.25;5049193;27;98753;-73
2024/03/23 09:23:46;;;;;;;;;;;;;;;11.26;70.75;100078.09;5047233;27;98694;-74
2024/03/23 09:26:13;;;;;;;;;;;;;;;11.21;69.37;100074.81;5045482;27;97235;-75
2024/03/23 09:28:38;;;;;;;;;;;;;;;10.91;69.17;100092.13;5052992;27;96952;-73
2024/03/23 09:31:06;;;;;;;;;;;;;;;10.32;70.35;100085.16;5048071;27;98694;-74
2024/03/23 09:33:32;;;;;;;;;;;;;;;10.25;72.28;100078.44;5050116;27;99539;-75
2024/03/23 09:36:01;;;;;;;;;;;;;;;10.27;70.83;100092.44;5057090;27;97219;-74
2024/03/23 09:38:27;;;;;;;;;;;;;;;10.37;70.86;100085.84;5051407;27;97006;-74
2024/03/23 09:40:54;;;;;;;;;;;;;;;10.59;70.06;100088.34;5048839;27;97730;-74
2024/03/23 09:43:19;;;;;;;;;;;;;;;11.01;69.50;100089.00;5051390;27;99033;-75
2024/03/23 09:45:46;;;;;;;;;;;;;;;11.06;69.57;100099.34;5051430;27;96803;-74
2024/03/23 09:48:13;;;;;;;;;;;;;;;11.17;69.22;100095.25;5050699;27;97151;-75
2024/03/23 09:50:51;;;;;;;;;;;;;;;11.32;68.25;100100.72;5047253;27;98867;-75
2024/03/23 09:53:17;;;;;;;;;;;;;;;11.27;67.53;100095.66;5053201;27;100856;-75
2024/03/23 09:55:44;;;;;;;;;;;;;;;11.20;68.07;100110.13;5051129;27;96722;-74
2024/03/23 09:58:12;;;;;;;;;;;;;;;11.19;69.22;100111.91;5048510;27;97348;-74
2024/03/23 10:00:38;;;;;;;;;;;;;;;11.28;67.75;100113.25;5050728;27;101017;-75
2024/03/23 10:03:04;;;;;;;;;;;;;;;11.42;68.52;100121.34;5050793;27;100346;-75
2024/03/23 10:05:33;;;;;;;;;;;;;;;11.43;66.89;100131.00;5050160;27;96815;-74
2024/03/23 10:07:59;;;;;;;;;;;;;;;11.13;68.18;100138.63;5049662;27;97511;-74
2024/03/23 10:10:26;;;;;;;;;;;;;;;11.21;66.35;100148.00;5047618;27;98802;-74
2024/03/23 10:12:51;;;;;;;;;;;;;;;11.07;66.66;100135.44;5048892;27;98769;-74
2024/03/23 10:15:19;;;;;;;;;;;;;;;10.89;67.08;100160.09;5046904;27;98482;-74
2024/03/23 10:17:44;;;;;;;;;;;;;;;10.64;67.76;100158.53;5049589;27;96772;-74
2024/03/23 10:20:11;;;;;;;;;;;;;;;10.86;68.19;100149.63;5049620;27;100691;-75
2024/03/23 10:22:38;;;;;;;;;;;;;;;11.41;67.37;100151.41;5053212;27;100875;-75
2024/03/23 10:25:08;;;;;;;;;;;;;;;11.45;68.40;100147.69;5050925;27;97164;-73
2024/03/23 10:27:34;;;;;;;;;;;;;;;11.19;67.83;100156.00;5050122;27;97192;-75
2024/03/23 10:30:08;;;;;;;;;;;;;;;11.11;67.89;100163.44;5049659;27;98723;-74
2024/03/23 10:32:34;;;;;;;;;;;;;;;11.07;68.49;100167.16;5052890;27;99135;-75
2024/03/23 10:35:14;;;;;;;;;;;;;;;10.93;70.04;100161.66;5050722;27;96799;-71
2024/03/23 10:37:41;;;;;;;;;;;;;;;10.86;69.62;100170.78;5049078;27;98930;-70
2024/03/23 10:40:08;;;;;;;;;;;;;;;10.58;70.96;100169.38;5046282;27;101664;-73
2024/03/23 10:42:37;;;;;;;;;;;;;;;10.56;71.76;100168.59;5049686;27;99346;-70
2024/03/23 10:45:04;;;;;;;;;;;;;;;10.23;70.72;100163.03;5050564;27;96752;-70
2024/03/23 10:47:30;;;;;;;;;;;;;;;10.20;71.41;100162.28;5049874;27;96909;-71
2024/03/23 10:49:56;;;;;;;;;;;;;;;9.80;71.89;100176.25;5048918;27;102209;-71
2024/03/23 10:52:21;;;;;;;;;;;;;;;9.92;73.31;100163.41;5049980;27;100838;-71
2024/03/23 10:54:51;;;;;;;;;;;;;;;9.99;71.02;100170.16;5050328;27;97778;-71
2024/03/23 10:57:17;;;;;;;;;;;;;;;10.58;71.43;100164.09;5051071;27;97095;-70
2024/03/23 10:59:45;;;;;;;;;;;;;;;10.67;72.25;100163.69;5052068;27;99486;-71
2024/03/23 11:02:18;;;;;;;;;;;;;;;10.40;71.67;100164.91;5051591;27;102448;-72
2024/03/23 11:04:48;;;;;;;;;;;;;;;10.65;67.98;100160.25;5051885;27;99586;-72
2024/03/23 11:07:28;;;;;;;;;;;;;;;10.83;69.63;100161.19;5067820;27;96794;-72
2024/03/23 11:09:56;;;;;;;;;;;;;;;10.53;68.85;100168.72;5056774;27;99018;-71
2024/03/23 11:12:27;;;;;;;;;;;;;;;9.68;73.13;100177.63;5048842;27;99006;-71
2024/03/23 11:14:55;;;;;;;;;;;;;;;9.50;74.10;100170.47;5052094;27;97969;-71
2024/03/23 11:17:21;;;;;;;;;;;;;;;9.46;73.67;100169.72;5054112;27;96795;-71
2024/03/23 11:19:54;;;;;;;;;;;;;;;9.98;71.16;100157.88;5053019;27;98882;-71
2024/03/23 11:22:34;;;;;;;;;;;;;;;10.45;67.32;100162.06;5048480;27;98695;-72
2024/03/23 11:25:02;;;;;;;;;;;;;;;10.90;65.56;100160.00;5060301;27;96820;-72
2024/03/23 11:27:28;;;;;;;;;;;;;;;11.00;65.24;100165.72;5061281;27;96843;-71
2024/03/23 11:29:54;;;;;;;;;;;;;;;11.24;67.61;100166.34;5053673;27;98153;-70
2024/03/23 11:32:19;;;;;;;;;;;;;;;11.33;66.09;100166.78;5052472;27;98718;-72
2024/03/23 11:34:46;;;;;;;;;;;;;;;11.35;66.83;100178.16;5053549;27;96997;-71
2024/03/23 11:37:12;;;;;;;;;;;;;;;11.52;68.79;100178.19;5052740;27;97023;-72
2024/03/23 11:39:38;;;;;;;;;;;;;;;11.58;67.79;100177.91;5049094;27;99120;-75
2024/03/23 11:42:05;;;;;;;;;;;;;;;11.63;68.79;100179.47;5054225;27;99687;-74
2024/03/23 11:44:31;;;;;;;;;;;;;;;11.93;66.49;100173.56;5054647;27;96779;-71
2024/03/23 11:47:07;;;;;;;;;;;;;;;11.84;68.43;100170.50;5056793;27;96723;-70
2024/03/23 11:49:33;;;;;;;;;;;;;;;10.95;65.09;100173.88;5052369;27;98846;-72
2024/03/23 11:51:58;;;;;;;;;;;;;;;10.70;67.77;100179.41;5055564;27;98805;-72
2024/03/23 11:54:25;;;;;;;;;;;;;;;11.19;68.57;100193.88;5057912;27;96744;-72
2024/03/23 11:56:54;;;;;;;;;;;;;;;11.38;67.10;100188.56;5058077;27;97757;-71
2024/03/23 11:59:32;;;;;;;;;;;;;;;10.94;67.45;100195.09;5055507;27;98921;-72
2024/03/23 12:01:57;;;;;;;;;;;;;;;11.01;69.97;100197.38;5052583;27;100872;-74
2024/03/23 12:04:26;;;;;;;;;;;;;;;11.07;69.25;100199.75;5054453;27;96734;-75
2024/03/23 12:06:52;;;;;;;;;;;;;;;10.82;69.76;100195.66;5068793;27;96784;-75
2024/03/23 12:09:17;;;;;;;;;;;;;;;11.19;70.45;100203.59;5063237;27;102614;-75
2024/03/23 12:11:45;;;;;;;;;;;;;;;11.03;70.97;100197.28;5056743;27;98759;-75
2024/03/23 12:14:14;;;;;;;;;;;;;;;11.38;71.07;100193.88;5057155;27;96756;-74
2024/03/23 12:16:42;;;;;;;;;;;;;;;10.74;73.68;100190.69;5059443;27;96844;-75
2024/03/23 12:19:07;;;;;;;;;;;;;;;10.41;75.11;100182.47;5064356;27;100707;-74
2024/03/23 12:21:34;;;;;;;;;;;;;;;10.52;76.68;100180.22;5060541;27;98599;-74
2024/03/23 12:24:00;;;;;;;;;;;;;;;10.53;76.48;100181.94;5066130;27;96997;-75
2024/03/23 12:26:26;;;;;;;;;;;;;;;10.02;75.75;100184.16;5058727;27;96860;-75
2024/03/23 12:28:52;;;;;;;;;;;;;;;9.44;78.94;100190.03;5057170;27;98921;-75
2024/03/23 12:31:18;;;;;;;;;;;;;;;9.39;80.14;100188.47;5061719;27;98812;-74